Time;durP1;ratioP1;P1;durP2;ratioP2;P2;SDS_P1;SDS_P2;PMS_P1;PMS_P2;Temp;Humidity;BMP_temperature;BMP_pressure;BME280_temperature;BME280_humidity;BME280_pressure;Samples;Min_cycle;Max_cycle;Signal;HPM_P1;HPM_P2
2021/05/27 00:00:33;;;;;;;;;;;;;;;19.72;41.93;99746.09;5031731;28;2043;-57
2021/05/27 00:02:59;;;;;;;;;;;;;;;19.72;42.05;99745.25;5032247;28;1826;-52
2021/05/27 00:05:25;;;;;;;;;;;;;;;19.73;41.96;99741.47;5031050;28;2114;-55
2021/05/27 00:07:51;;;;;;;;;;;;;;;19.71;42.02;99749.88;5033061;28;1979;-55
2021/05/27 00:10:19;;;;;;;;;;;;;;;19.71;41.92;99747.16;5033170;28;1949;-52
2021/05/27 00:12:45;;;;;;;;;;;;;;;19.71;42.05;99749.03;5032135;28;2037;-55
2021/05/27 00:15:11;;;;;;;;;;;;;;;19.70;42.07;99750.91;5032691;28;1979;-53
2021/05/27 00:17:37;;;;;;;;;;;;;;;19.68;41.98;99739.41;5032087;28;2097;-55
2021/05/27 00:20:04;;;;;;;;;;;;;;;19.68;42.11;99741.31;5032451;28;1674;-53
2021/05/27 00:22:30;;;;;;;;;;;;;;;19.67;42.10;99743.19;5032667;28;2419;-55
2021/05/27 00:24:55;;;;;;;;;;;;;;;19.65;42.00;99739.81;5029910;28;2456;-53
2021/05/27 00:27:22;;;;;;;;;;;;;;;19.66;42.01;99740.69;5032746;28;1798;-54
2021/05/27 00:29:48;;;;;;;;;;;;;;;19.65;42.12;99744.44;5032457;28;2047;-54
2021/05/27 00:32:14;;;;;;;;;;;;;;;19.64;41.94;99737.31;5034327;28;2004;-53
2021/05/27 00:34:39;;;;;;;;;;;;;;;19.63;42.01;99741.94;5031899;28;1988;-52
2021/05/27 00:37:05;;;;;;;;;;;;;;;19.62;42.10;99740.25;5032178;28;1993;-55
2021/05/27 00:39:31;;;;;;;;;;;;;;;19.63;42.01;99751.97;5032127;28;1831;-55
2021/05/27 00:41:58;;;;;;;;;;;;;;;19.60;42.15;99742.38;5031458;28;1695;-55
2021/05/27 00:44:27;;;;;;;;;;;;;;;19.62;42.16;99739.44;5032312;28;2000;-53
2021/05/27 00:46:53;;;;;;;;;;;;;;;19.55;42.00;99745.75;5053026;22;3545;-64
2021/05/27 00:49:19;;;;;;;;;;;;;;;19.60;42.18;99746.97;5004426;28;3226;-56
2021/05/27 00:51:46;;;;;;;;;;;;;;;19.58;42.03;99746.38;5011722;28;1998;-59
2021/05/27 00:54:12;;;;;;;;;;;;;;;19.59;42.21;99745.31;5009463;28;2127;-57
2021/05/27 00:56:38;;;;;;;;;;;;;;;19.56;42.18;99750.13;5011117;28;2017;-57
2021/05/27 00:59:04;;;;;;;;;;;;;;;19.56;42.04;99750.13;4992035;28;2070;-54
2021/05/27 01:01:30;;;;;;;;;;;;;;;19.55;42.08;99753.91;4990740;28;2021;-56
2021/05/27 01:03:55;;;;;;;;;;;;;;;19.55;42.08;99747.63;4991489;28;2114;-55
2021/05/27 01:06:21;;;;;;;;;;;;;;;19.55;42.16;99748.47;4991216;28;1749;-60
2021/05/27 01:08:47;;;;;;;;;;;;;;;19.55;42.04;99747.63;4991423;28;1955;-56
2021/05/27 01:11:15;;;;;;;;;;;;;;;19.53;42.18;99753.25;4991618;28;1591;-54
2021/05/27 01:13:40;;;;;;;;;;;;;;;19.53;42.18;99757.84;4991061;28;1961;-56
2021/05/27 01:16:11;;;;;;;;;;;;;;;19.54;41.99;99745.94;4992097;28;2106;-56
2021/05/27 01:18:37;;;;;;;;;;;;;;;19.53;42.03;99747.81;4991091;28;1982;-53
2021/05/27 01:21:02;;;;;;;;;;;;;;;19.51;42.21;99749.91;4991349;28;1992;-56
2021/05/27 01:23:30;;;;;;;;;;;;;;;19.51;42.03;99744.44;4990352;28;2576;-58
2021/05/27 01:25:56;;;;;;;;;;;;;;;19.51;42.03;99749.06;4991236;28;1634;-55
2021/05/27 01:28:22;;;;;;;;;;;;;;;19.50;42.19;99741.94;4990180;28;1944;-58
2021/05/27 01:30:48;;;;;;;;;;;;;;;19.50;42.01;99747.38;4989906;28;2011;-59
2021/05/27 01:33:15;;;;;;;;;;;;;;;19.50;42.02;99747.38;4990633;28;1955;-59
2021/05/27 01:35:40;;;;;;;;;;;;;;;19.50;42.06;99744.66;4991091;28;2053;-55
2021/05/27 01:38:13;;;;;;;;;;;;;;;19.49;42.23;99743.00;4991123;28;2128;-56
2021/05/27 01:40:39;;;;;;;;;;;;;;;19.49;42.05;99749.28;4991074;28;1996;-56
2021/05/27 01:43:05;;;;;;;;;;;;;;;19.48;42.14;99747.59;4989447;28;2471;-55
2021/05/27 01:45:31;;;;;;;;;;;;;;;19.48;42.14;99747.59;4979766;28;1953;-58
2021/05/27 01:47:56;;;;;;;;;;;;;;;19.47;42.08;99748.66;4990409;28;2128;-56
2021/05/27 01:50:22;;;;;;;;;;;;;;;19.44;42.07;99743.66;4990407;28;1983;-52
2021/05/27 01:52:49;;;;;;;;;;;;;;;19.45;42.14;99748.03;4989696;28;2019;-53
2021/05/27 01:55:14;;;;;;;;;;;;;;;19.45;42.14;99748.03;4990858;28;1973;-58
2021/05/27 01:57:40;;;;;;;;;;;;;;;19.46;42.24;99748.88;4990754;28;1963;-56
2021/05/27 02:00:06;;;;;;;;;;;;;;;19.45;42.28;99750.75;4989328;28;1960;-55
2021/05/27 02:02:32;;;;;;;;;;;;;;;19.44;42.25;99754.53;4988917;28;2069;-56
2021/05/27 02:04:57;;;;;;;;;;;;;;;19.45;42.18;99753.47;4991038;28;1810;-56
2021/05/27 02:07:23;;;;;;;;;;;;;;;19.44;42.21;99759.97;4988224;28;1991;-58
2021/05/27 02:09:49;;;;;;;;;;;;;;;19.43;42.12;99758.31;4991233;28;1677;-59
2021/05/27 02:12:15;;;;;;;;;;;;;;;19.44;41.96;99759.97;4990231;28;2097;-59
2021/05/27 02:14:40;;;;;;;;;;;;;;;19.42;42.23;99762.09;4990529;28;1979;-56
2021/05/27 02:17:06;;;;;;;;;;;;;;;19.42;42.20;99767.53;4991076;28;1607;-52
2021/05/27 02:19:32;;;;;;;;;;;;;;;19.42;42.07;99759.38;4990896;28;1995;-55
2021/05/27 02:21:57;;;;;;;;;;;;;;;19.42;42.25;99761.25;4989960;28;2638;-56
2021/05/27 02:24:23;;;;;;;;;;;;;;;19.41;42.20;99765.81;4989503;28;1705;-55
2021/05/27 02:26:49;;;;;;;;;;;;;;;19.41;42.14;99768.53;4991725;28;2223;-53
2021/05/27 02:29:14;;;;;;;;;;;;;;;19.41;42.20;99763.09;4991106;28;1833;-52
2021/05/27 02:31:40;;;;;;;;;;;;;;;19.39;42.09;99767.94;4989690;28;1873;-56
2021/05/27 02:34:06;;;;;;;;;;;;;;;19.39;42.09;99762.50;4989586;28;1973;-58
2021/05/27 02:36:31;;;;;;;;;;;;;;;19.39;42.19;99761.66;4990522;28;1962;-59
2021/05/27 02:38:57;;;;;;;;;;;;;;;19.39;42.17;99762.50;4990451;28;2055;-53
2021/05/27 02:41:23;;;;;;;;;;;;;;;19.39;42.27;99761.66;4989537;28;1884;-56
2021/05/27 02:43:50;;;;;;;;;;;;;;;19.38;42.19;99763.53;4990421;28;1808;-53
2021/05/27 02:46:15;;;;;;;;;;;;;;;19.38;42.08;99760.81;4990216;28;2179;-57
2021/05/27 02:48:41;;;;;;;;;;;;;;;19.37;42.16;99756.44;4990372;28;2383;-56
2021/05/27 02:51:07;;;;;;;;;;;;;;;19.38;42.13;99760.81;4989135;28;1998;-56
2021/05/27 02:53:33;;;;;;;;;;;;;;;19.38;42.20;99758.09;4990202;28;2004;-56
2021/05/27 02:55:58;;;;;;;;;;;;;;;19.37;42.01;99761.03;4991441;28;1718;-60
2021/05/27 02:58:24;;;;;;;;;;;;;;;19.37;42.14;99766.47;4990335;28;2118;-58
2021/05/27 03:00:50;;;;;;;;;;;;;;;19.36;42.14;99767.53;4991205;28;1964;-55
2021/05/27 03:03:16;;;;;;;;;;;;;;;19.36;42.13;99773.81;4990089;28;2257;-53
2021/05/27 03:05:43;;;;;;;;;;;;;;;19.35;42.21;99771.31;4989533;28;2216;-55
2021/05/27 03:08:08;;;;;;;;;;;;;;;19.35;42.13;99780.31;4989791;28;1805;-56
2021/05/27 03:10:34;;;;;;;;;;;;;;;19.35;42.19;99780.31;4990045;28;1952;-56
2021/05/27 03:13:00;;;;;;;;;;;;;;;19.34;42.17;99770.47;4991273;28;1902;-62
2021/05/27 03:15:25;;;;;;;;;;;;;;;19.35;42.26;99788.47;4994268;28;1831;-55
2021/05/27 03:17:51;;;;;;;;;;;;;;;19.35;42.24;99779.47;4994443;28;1987;-54
2021/05/27 03:20:17;;;;;;;;;;;;;;;19.34;42.28;99781.34;4993337;28;1753;-58
2021/05/27 03:22:42;;;;;;;;;;;;;;;19.33;42.13;99785.13;4992666;28;2558;-53
2021/05/27 03:25:08;;;;;;;;;;;;;;;19.33;42.13;99785.13;4993581;28;1773;-56
2021/05/27 03:27:34;;;;;;;;;;;;;;;19.32;42.18;99788.06;4993283;28;2378;-56
2021/05/27 03:30:00;;;;;;;;;;;;;;;19.33;42.11;99792.44;4993113;28;2010;-52
2021/05/27 03:32:26;;;;;;;;;;;;;;;19.32;42.22;99793.50;4994431;28;2046;-53
2021/05/27 03:34:52;;;;;;;;;;;;;;;19.31;42.36;99798.09;4991685;28;1891;-55
2021/05/27 03:37:18;;;;;;;;;;;;;;;19.28;42.03;99788.47;4993340;28;2071;-59
2021/05/27 03:40:11;;;;;;;;;;;;;;;19.32;42.28;99796.22;4991465;28;2016;-59
2021/05/27 03:42:29;;;;;;;;;;;;;;;19.31;41.89;99800.00;4992413;28;2030;-61
2021/05/27 03:44:54;;;;;;;;;;;;;;;19.30;42.09;99807.31;4993023;28;1698;-55
2021/05/27 03:47:20;;;;;;;;;;;;;;;19.30;42.38;99801.88;4992576;28;2066;-54
2021/05/27 03:49:46;;;;;;;;;;;;;;;19.30;42.12;99801.88;4992892;28;1705;-56
2021/05/27 03:52:11;;;;;;;;;;;;;;;19.31;42.15;99808.16;4993387;28;1996;-53
2021/05/27 03:54:37;;;;;;;;;;;;;;;19.30;42.29;99812.75;4991745;28;1906;-56
2021/05/27 03:57:03;;;;;;;;;;;;;;;19.29;42.23;99817.34;4992733;28;2002;-57
2021/05/27 04:02:13;;;;;;;;;;;;;;;19.28;42.12;99814.84;4992918;28;1967;-54
2021/05/27 04:07:26;;;;;;;;;;;;;;;19.28;42.18;99817.56;4994098;28;1749;-57
2021/05/27 04:09:51;;;;;;;;;;;;;;;19.27;42.18;99816.72;4993698;28;1785;-57
2021/05/27 04:15:23;;;;;;;;;;;;;;;19.26;42.12;99817.75;4993207;28;1902;-56
2021/05/27 04:17:59;;;;;;;;;;;;;;;19.27;42.26;99824.03;4986808;28;1965;-56
2021/05/27 04:20:26;;;;;;;;;;;;;;;19.25;42.21;99821.53;4992261;28;2058;-58
2021/05/27 04:22:52;;;;;;;;;;;;;;;19.26;42.24;99827.81;4991729;28;3421;-55
2021/05/27 04:25:19;;;;;;;;;;;;;;;19.24;42.07;99828.03;4992192;28;1845;-57
2021/05/27 04:27:45;;;;;;;;;;;;;;;19.25;42.26;99823.41;4992157;28;2419;-53
2021/05/27 04:30:15;;;;;;;;;;;;;;;19.24;42.31;99822.59;4992501;28;1517;-54
2021/05/27 04:33:15;;;;;;;;;;;;;;;19.26;42.21;99822.38;4991325;28;1982;-52
2021/05/27 04:35:37;;;;;;;;;;;;;;;19.24;42.08;99829.91;4988240;28;2018;-55
2021/05/27 04:38:07;;;;;;;;;;;;;;;19.25;42.08;99828.88;4990767;28;1888;-57
2021/05/27 04:40:34;;;;;;;;;;;;;;;19.23;42.25;99826.34;4992212;28;2027;-62
2021/05/27 04:43:00;;;;;;;;;;;;;;;19.23;42.14;99823.63;4990846;28;1825;-53
2021/05/27 04:45:26;;;;;;;;;;;;;;;19.24;42.23;99829.91;4991420;28;2025;-56
2021/05/27 04:47:52;;;;;;;;;;;;;;;19.25;42.12;99826.97;4991949;28;1714;-56
2021/05/27 04:50:17;;;;;;;;;;;;;;;19.25;42.04;99831.59;4992194;28;2213;-53
2021/05/27 04:52:43;;;;;;;;;;;;;;;19.25;42.14;99834.31;4991483;28;2003;-54
2021/05/27 04:55:10;;;;;;;;;;;;;;;19.24;42.17;99830.75;4991459;28;1965;-53
2021/05/27 04:57:36;;;;;;;;;;;;;;;19.23;42.19;99831.81;4991275;28;1630;-58
2021/05/27 05:00:03;;;;;;;;;;;;;;;19.24;42.25;99838.06;4990953;28;2116;-60
2021/05/27 05:02:29;;;;;;;;;;;;;;;19.21;42.30;99830.34;4990097;28;2020;-56
2021/05/27 05:04:54;;;;;;;;;;;;;;;19.22;42.13;99834.72;4991997;28;1997;-55
2021/05/27 05:07:20;;;;;;;;;;;;;;;19.22;42.28;99845.63;4991441;28;1942;-55
2021/05/27 05:09:46;;;;;;;;;;;;;;;19.24;42.17;99840.78;4991311;28;2014;-64
2021/05/27 05:12:11;;;;;;;;;;;;;;;19.24;42.25;99846.22;4989541;28;1999;-61
2021/05/27 05:14:37;;;;;;;;;;;;;;;19.26;42.15;99849.56;4991077;28;2001;-62
2021/05/27 05:17:03;;;;;;;;;;;;;;;19.27;42.18;99843.91;4992254;28;2005;-61
2021/05/27 05:19:29;;;;;;;;;;;;;;;19.26;42.23;99844.97;4990039;28;1877;-62
2021/05/27 05:21:56;;;;;;;;;;;;;;;19.26;42.05;99842.25;4990799;28;2780;-62
2021/05/27 05:24:22;;;;;;;;;;;;;;;19.27;42.08;99846.66;4972002;28;1663;-61
2021/05/27 05:26:48;;;;;;;;;;;;;;;19.27;42.14;99841.19;4991309;28;2394;-62
2021/05/27 05:29:13;;;;;;;;;;;;;;;19.26;42.02;99858.56;4990952;28;2090;-62
2021/05/27 05:31:39;;;;;;;;;;;;;;;19.25;42.04;99853.34;4991941;28;1954;-62
2021/05/27 05:34:05;;;;;;;;;;;;;;;19.24;42.16;99865.28;4990260;28;2046;-61
2021/05/27 05:36:31;;;;;;;;;;;;;;;19.24;42.08;99862.56;4990925;28;1513;-63
2021/05/27 05:38:56;;;;;;;;;;;;;;;19.23;42.05;99864.44;4991202;28;1967;-63
2021/05/27 05:41:22;;;;;;;;;;;;;;;19.24;42.15;99868.00;4991310;28;1742;-60
2021/05/27 05:43:48;;;;;;;;;;;;;;;19.24;42.05;99862.56;4990883;28;1778;-61
2021/05/27 05:46:14;;;;;;;;;;;;;;;19.22;42.18;99870.94;4991476;28;1982;-61
2021/05/27 05:48:39;;;;;;;;;;;;;;;19.22;42.20;99867.38;4991158;28;1928;-62
2021/05/27 05:51:07;;;;;;;;;;;;;;;19.23;42.19;99877.22;4990675;28;2100;-59
2021/05/27 05:53:33;;;;;;;;;;;;;;;19.23;42.26;99866.31;4990865;28;1911;-61
2021/05/27 05:55:59;;;;;;;;;;;;;;;19.26;42.02;99871.34;4991298;28;1785;-62
2021/05/27 05:58:26;;;;;;;;;;;;;;;19.25;41.96;99877.84;4991244;28;1836;-63
2021/05/27 06:00:52;;;;;;;;;;;;;;;19.26;42.00;99871.34;4991289;28;1856;-61
2021/05/27 06:03:18;;;;;;;;;;;;;;;19.27;42.01;99867.56;4971200;28;1760;-61
2021/05/27 06:05:44;;;;;;;;;;;;;;;19.26;42.20;99871.34;4991175;28;1734;-62
2021/05/27 06:08:09;;;;;;;;;;;;;;;19.28;42.20;99871.97;4990180;28;2093;-63
2021/05/27 06:10:35;;;;;;;;;;;;;;;19.30;42.12;99878.06;4989836;28;2029;-62
2021/05/27 06:13:01;;;;;;;;;;;;;;;19.31;41.96;99876.19;4989727;28;1926;-62
2021/05/27 06:15:27;;;;;;;;;;;;;;;19.29;42.16;99879.91;4990883;28;1961;-63
2021/05/27 06:17:53;;;;;;;;;;;;;;;19.32;42.00;99875.97;4990765;28;1971;-62
2021/05/27 06:20:22;;;;;;;;;;;;;;;19.35;41.95;99880.13;4989953;28;1702;-60
2021/05/27 06:22:48;;;;;;;;;;;;;;;19.37;41.86;99880.75;4990899;28;2033;-62
2021/05/27 06:25:14;;;;;;;;;;;;;;;19.40;41.91;99889.34;4990170;28;1701;-61
2021/05/27 06:27:40;;;;;;;;;;;;;;;19.39;41.84;99887.66;4990788;28;2556;-60
2021/05/27 06:30:06;;;;;;;;;;;;;;;19.39;41.79;99889.53;4990982;28;2002;-61
2021/05/27 06:32:34;;;;;;;;;;;;;;;19.38;41.83;99886.00;4989536;28;2626;-62
2021/05/27 06:35:01;;;;;;;;;;;;;;;19.35;41.94;99894.59;4988884;28;1957;-64
2021/05/27 06:37:26;;;;;;;;;;;;;;;19.35;42.17;99897.31;4983704;28;5843;-62
2021/05/27 06:39:52;;;;;;;;;;;;;;;19.42;42.02;99891.88;4989456;28;5761;-64
2021/05/27 06:42:19;;;;;;;;;;;;;;;19.43;42.20;99899.81;4982779;28;3470;-62
2021/05/27 06:44:45;;;;;;;;;;;;;;;19.44;42.14;99890.59;4983210;28;1914;-61
2021/05/27 06:47:10;;;;;;;;;;;;;;;19.45;42.01;99892.28;4991031;28;2087;-59
2021/05/27 06:49:36;;;;;;;;;;;;;;;19.46;42.45;99896.66;5013272;22;1742;-64
2021/05/27 06:52:02;;;;;;;;;;;;;;;19.46;42.53;99893.13;5016578;28;1756;-64
2021/05/27 06:54:27;;;;;;;;;;;;;;;19.49;42.15;99888.06;5013930;28;5770;-66
2021/05/27 06:56:53;;;;;;;;;;;;;;;19.53;41.98;99893.94;5009096;28;1759;-64
2021/05/27 06:59:19;;;;;;;;;;;;;;;19.54;42.02;99890.19;5014749;28;1911;-61
2021/05/27 07:01:45;;;;;;;;;;;;;;;19.56;41.98;99891.69;5015274;28;2219;-61
2021/05/27 07:04:10;;;;;;;;;;;;;;;19.53;42.00;99883.91;5005465;28;2224;-65
2021/05/27 07:06:36;;;;;;;;;;;;;;;19.52;42.00;99893.09;5012456;28;2050;-66
2021/05/27 07:09:02;;;;;;;;;;;;;;;19.51;42.28;99896.03;5012229;28;2025;-63
2021/05/27 07:11:28;;;;;;;;;;;;;;;19.48;42.34;99901.91;5014208;28;1648;-63
2021/05/27 07:13:54;;;;;;;;;;;;;;;19.49;42.32;99907.13;5014718;28;2176;-63
2021/05/27 07:16:19;;;;;;;;;;;;;;;19.49;42.24;99907.13;5014599;28;2246;-63
2021/05/27 07:18:45;;;;;;;;;;;;;;;19.55;42.27;99916.38;5014371;28;2125;-63
2021/05/27 07:22:27;;;;;;;1184.25;999.90;;;;;;;19.62;42.22;99905.47;5044453;27;20430;-65
2021/05/27 07:24:53;;;;;;;1202.70;999.90;;;;;;;19.66;43.35;99901.31;5024585;28;20572;-62
2021/05/27 07:27:19;;;;;;;1256.18;999.90;;;;;;;19.68;42.45;99896.47;5027575;28;20025;-64
2021/05/27 07:29:47;;;;;;;1177.00;999.90;;;;;;;19.69;42.37;99901.72;5016089;28;20034;-64
2021/05/27 07:32:13;;;;;;;1231.45;999.90;;;;;;;19.69;42.70;99904.44;5001840;28;20053;-64
2021/05/27 07:34:39;;;;;;;1278.60;999.90;;;;;;;19.68;42.66;99908.19;5011268;28;20045;-63
2021/05/27 07:37:05;;;;;;;1299.85;999.90;;;;;;;19.69;42.73;99904.44;5007323;28;20052;-64
2021/05/27 07:39:31;;;;;;;1246.38;999.90;;;;;;;19.65;42.95;99907.78;5013812;28;20155;-63
2021/05/27 07:41:57;;;;;;;1200.85;999.90;;;;;;;19.64;42.78;99906.94;5010196;28;20056;-64
2021/05/27 07:44:23;;;;;;;1182.53;999.90;;;;;;;19.63;42.69;99920.75;5024752;28;20383;-62
2021/05/27 07:46:49;;;;;;;1273.88;999.90;;;;;;;19.61;42.60;99914.69;5015302;28;20036;-63
2021/05/27 07:49:15;;;;;;;1204.05;999.90;;;;;;;19.58;42.62;99912.41;5021457;28;20041;-63
2021/05/27 07:51:41;;;;;;;1150.97;999.90;;;;;;;19.56;42.66;99908.00;5022364;28;20474;-64
2021/05/27 07:54:06;;;;;;;1201.80;999.90;;;;;;;19.59;42.72;99904.03;5012421;28;20041;-62
2021/05/27 07:56:32;;;;;;;;;;;;;;;19.57;42.49;99900.69;5007994;28;20382;-61
2021/05/27 07:58:58;;;;;;;1171.65;999.90;;;;;;;19.59;42.47;99906.75;5015843;28;19921;-64
2021/05/27 08:01:25;;;;;;;;;;;;;;;19.60;42.47;99916.59;5022867;28;20032;-61
2021/05/27 08:03:50;;;;;;;1169.65;999.90;;;;;;;19.60;42.48;99915.75;5005122;28;19928;-65
2021/05/27 08:06:17;;;;;;;;;;;;;;;19.62;42.53;99905.47;5008344;28;20034;-63
2021/05/27 08:08:42;;;;;;;1153.82;999.90;;;;;;;19.62;42.32;99908.19;5021026;28;19913;-63
2021/05/27 08:11:08;;;;;;;1192.82;999.90;;;;;;;19.61;42.48;99915.53;5020584;28;20375;-63
2021/05/27 08:13:34;;;;;;;1213.90;999.90;;;;;;;19.65;42.21;99902.31;5009245;28;20509;-64
2021/05/27 08:16:00;;;;;;;1240.28;999.90;;;;;;;19.65;42.19;99919.50;5016589;28;20044;-65
2021/05/27 08:18:26;;;;;;;1263.10;999.90;;;;;;;19.68;42.21;99934.59;5015959;28;20111;-65
2021/05/27 08:20:52;;;;;;;1268.25;999.90;;;;;;;19.72;42.07;99930.38;5016017;28;20042;-65
2021/05/27 08:23:18;;;;;;;1278.30;999.90;;;;;;;19.72;42.16;99924.94;5017529;28;20033;-65
2021/05/27 08:25:44;;;;;;;1253.63;999.90;;;;;;;19.64;41.90;99950.50;5015500;28;20474;-64
2021/05/27 08:28:10;;;;;;;1292.85;999.90;;;;;;;19.61;42.06;99931.88;5011636;28;20033;-64
2021/05/27 08:30:36;;;;;;;1302.40;999.90;;;;;;;19.59;41.96;99935.84;5004354;28;20046;-65
2021/05/27 08:33:02;;;;;;;1266.30;999.90;;;;;;;19.56;41.49;99943.38;4999441;28;20034;-65
2021/05/27 08:35:28;;;;;;;1266.82;999.90;;;;;;;19.50;41.28;99933.28;5003266;28;20059;-65
2021/05/27 08:37:54;;;;;;;1274.88;999.90;;;;;;;19.41;41.24;99939.16;4997956;28;20085;-64
2021/05/27 08:40:20;;;;;;;1277.38;999.90;;;;;;;19.39;41.03;99943.97;5007477;28;20040;-64
2021/05/27 08:42:46;;;;;;;1259.53;999.90;;;;;;;19.38;41.01;99940.41;5002682;28;20040;-67
2021/05/27 08:45:15;;;;;;;1246.78;999.90;;;;;;;19.41;41.32;99937.25;5002018;28;20477;-66
2021/05/27 08:47:41;;;;;;;1308.82;999.90;;;;;;;19.42;41.50;99938.97;4997805;28;20050;-65
2021/05/27 08:50:09;;;;;;;1328.07;999.90;;;;;;;19.44;41.50;99945.03;4993091;28;20037;-64
2021/05/27 08:52:35;;;;;;;1323.65;999.90;;;;;;;19.43;41.58;99942.53;5006961;28;20470;-64
2021/05/27 08:55:01;;;;;;;1313.55;999.90;;;;;;;19.45;41.49;99940.44;4992123;28;20053;-65
2021/05/27 08:57:27;;;;;;;1278.07;999.90;;;;;;;19.43;41.39;99943.38;4992184;28;21634;-65
2021/05/27 08:59:53;;;;;;;1264.63;999.90;;;;;;;19.43;41.69;99943.38;5001441;28;20037;-60
2021/05/27 09:02:19;;;;;;;1273.63;999.90;;;;;;;19.45;41.63;99946.72;4999455;28;20370;-63
2021/05/27 09:04:45;;;;;;;1255.50;999.90;;;;;;;19.48;41.46;99942.72;4990557;28;20034;-64
2021/05/27 09:07:14;;;;;;;1279.78;999.90;;;;;;;19.50;41.74;99946.06;4997097;28;20042;-61
2021/05/27 09:09:55;;;;;;;1277.60;999.90;;;;;;;19.51;41.63;99934.13;5003182;28;20029;-66
2021/05/27 09:12:32;;;;;;;1290.68;999.90;;;;;;;19.62;41.49;99947.16;4991269;28;20042;-63
2021/05/27 09:15:22;;;;;;;1255.05;999.90;;;;;;;19.62;41.44;99946.31;4992325;28;20045;-65
2021/05/27 09:17:52;;;;;;;1244.70;999.90;;;;;;;19.59;41.50;99953.03;4994143;28;20026;-62
2021/05/27 09:20:25;;;;;;;1252.63;999.90;;;;;;;19.51;41.73;99945.84;4995533;28;20052;-61
2021/05/27 09:23:15;;;;;;;1300.55;999.90;;;;;;;19.57;41.42;99946.94;4998108;28;20410;-60
2021/05/27 09:25:43;;;;;;;1285.32;999.90;;;;;;;19.60;41.47;99953.84;4991737;28;20049;-64
2021/05/27 09:28:10;;;;;;;1292.22;999.90;;;;;;;19.61;41.63;99955.53;4997025;28;20033;-62
2021/05/27 09:30:43;;;;;;;1277.90;999.90;;;;;;;19.64;41.51;99955.09;5004816;28;20034;-64
2021/05/27 09:33:09;;;;;;;1279.47;999.90;;;;;;;19.64;41.59;99955.09;4995457;28;20049;-59
2021/05/27 09:35:35;;;;;;;1265.63;999.90;;;;;;;19.65;41.32;99965.78;4999848;28;20042;-67
2021/05/27 09:38:01;;;;;;;1269.38;999.90;;;;;;;19.63;41.41;99958.88;4998771;28;20413;-63
2021/05/27 09:40:36;;;;;;;1253.75;999.90;;;;;;;19.65;41.46;99963.06;4982522;28;73039;-66
2021/05/27 09:43:04;;;;;;;1258.20;999.90;;;;;;;19.67;41.31;99962.88;4992568;28;20043;-65
2021/05/27 09:45:31;;;;;;;1251.60;999.90;;;;;;;19.69;41.43;99968.94;4980347;28;20068;-65
2021/05/27 09:47:58;;;;;;;1256.20;999.90;;;;;;;19.67;41.39;99965.59;4990787;28;20070;-65
2021/05/27 09:50:31;;;;;;;1247.80;999.90;;;;;;;19.68;41.45;99972.72;4991428;28;20053;-65
2021/05/27 09:53:15;;;;;;;1240.88;999.90;;;;;;;19.69;41.54;99974.38;4984322;28;20043;-67
2021/05/27 09:55:41;;;;;;;1238.20;999.90;;;;;;;19.69;41.43;99974.38;4975123;28;20039;-63
2021/05/27 09:58:12;;;;;;;1220.15;999.90;;;;;;;19.68;41.35;99973.53;4987850;28;20047;-63
2021/05/27 10:00:39;;;;;;;1237.35;999.90;;;;;;;19.72;41.46;99971.22;4967555;28;20057;-63
2021/05/27 10:03:22;;;;;;;1245.70;999.90;;;;;;;19.71;41.41;99975.00;4958094;28;20030;-62
2021/05/27 10:05:49;;;;;;;1253.78;999.90;;;;;;;19.68;41.58;99967.25;4965679;28;20053;-63
2021/05/27 10:08:16;;;;;;;1245.03;999.90;;;;;;;19.68;41.56;99965.38;4960777;28;20050;-62
2021/05/27 10:10:43;;;;;;;1247.07;999.90;;;;;;;19.69;41.44;99971.66;4965189;28;20047;-61
2021/05/27 10:13:10;;;;;;;1233.25;999.90;;;;;;;19.68;41.56;99967.25;4966157;28;20038;-63
2021/05/27 10:15:36;;;;;;;1228.78;999.90;;;;;;;19.63;41.71;99970.59;4967489;28;20046;-63
2021/05/27 10:18:04;;;;;;;1228.13;999.90;;;;;;;19.62;41.64;99966.19;4968215;28;20026;-62
2021/05/27 10:20:31;;;;;;;1244.03;999.90;;;;;;;19.61;41.59;99967.25;4973425;28;22560;-63
2021/05/27 10:22:58;;;;;;;1244.68;999.90;;;;;;;19.57;41.75;99966.00;4973610;28;20026;-61
2021/05/27 10:25:28;;;;;;;1239.85;999.90;;;;;;;19.55;41.46;99968.09;4971148;28;20498;-63
2021/05/27 10:27:56;;;;;;;1241.28;999.90;;;;;;;19.59;41.61;99973.97;4971841;28;20042;-63
2021/05/27 10:30:23;;;;;;;1233.85;999.90;;;;;;;19.52;41.65;99982.91;4969611;28;20090;-64
2021/05/27 10:33:02;;;;;;;1246.88;999.90;;;;;;;19.49;41.86;99993.38;4966154;28;20027;-65
2021/05/27 10:35:56;;;;;;;1240.35;999.90;;;;;;;19.46;41.81;99997.38;4974232;28;20038;-63
2021/05/27 10:38:43;;;;;;;1225.05;999.90;;;;;;;19.40;42.05;100013.69;4970193;28;20047;-65
2021/05/27 10:41:13;;;;;;;1221.28;999.90;;;;;;;19.38;42.31;100016.59;4964020;28;20026;-63
2021/05/27 10:44:01;;;;;;;1219.03;999.90;;;;;;;19.40;42.33;100005.50;4971886;28;20053;-65
2021/05/27 10:46:28;;;;;;;1216.65;999.90;;;;;;;19.44;42.26;100004.06;4968507;28;20033;-63
2021/05/27 10:48:54;;;;;;;1227.85;999.90;;;;;;;19.43;42.56;100008.69;4965327;28;20035;-63
2021/05/27 10:51:36;;;;;;;1239.07;999.90;;;;;;;19.45;42.57;100006.59;4970074;28;20033;-62
2021/05/27 10:54:04;;;;;;;1237.18;999.90;;;;;;;19.49;42.33;100009.72;4971626;28;20080;-63
2021/05/27 10:56:33;;;;;;;1239.72;999.90;;;;;;;19.49;42.56;100007.84;4962605;28;20054;-64
2021/05/27 10:58:59;;;;;;;1243.00;999.90;;;;;;;19.50;42.55;100004.06;4967252;28;20038;-64
2021/05/27 11:01:28;;;;;;;1227.50;999.90;;;;;;;19.52;42.39;100003.84;4964569;28;20037;-66
2021/05/27 11:03:55;;;;;;;1231.97;999.90;;;;;;;19.54;42.37;99996.34;4965676;28;20279;-65
2021/05/27 11:06:34;;;;;;;1224.82;999.90;;;;;;;19.51;42.59;100000.28;4966519;28;20041;-65
2021/05/27 11:09:24;;;;;;;1240.22;999.90;;;;;;;19.53;42.53;99995.50;4963368;28;20045;-64
2021/05/27 11:12:00;;;;;;;1228.10;999.90;;;;;;;19.55;42.63;100000.78;4964117;28;20019;-64
2021/05/27 11:14:34;;;;;;;1229.00;999.90;;;;;;;19.61;42.42;99993.63;4966504;28;20030;-64
2021/05/27 11:17:04;;;;;;;1222.30;999.90;;;;;;;19.61;42.54;99980.88;4969417;28;20529;-63
2021/05/27 11:19:59;;;;;;;1223.90;999.90;;;;;;;19.56;42.64;99984.22;4963473;28;20503;-65
2021/05/27 11:22:28;;;;;;;1228.07;999.90;;;;;;;19.56;42.88;99991.56;4967552;28;20395;-63
2021/05/27 11:25:06;;;;;;;1232.43;999.90;;;;;;;19.54;43.02;99989.00;4969244;28;20033;-62
2021/05/27 11:27:56;;;;;;;1233.63;999.90;;;;;;;19.52;42.70;99996.53;4966911;28;20035;-62
2021/05/27 11:30:29;;;;;;;1234.25;999.90;;;;;;;19.51;42.95;100000.28;4967318;28;20286;-64
2021/05/27 11:33:02;;;;;;;1228.45;999.90;;;;;;;19.51;42.85;99992.13;4968059;28;20063;-63
2021/05/27 11:35:41;;;;;;;1235.18;999.90;;;;;;;19.55;42.90;99992.59;4965825;28;20034;-61
2021/05/27 11:38:09;;;;;;;1236.32;999.90;;;;;;;19.53;42.98;99995.50;4962855;28;20043;-64
2021/05/27 11:40:38;;;;;;;1230.32;999.90;;;;;;;19.54;43.00;99982.72;4965833;28;20031;-63
2021/05/27 11:43:06;;;;;;;1236.45;999.90;;;;;;;19.49;43.31;99991.50;4969791;28;20043;-64
2021/05/27 11:45:50;;;;;;;1232.65;999.90;;;;;;;19.45;43.18;99990.25;4968098;28;20042;-63
2021/05/27 11:48:25;;;;;;;1243.85;999.90;;;;;;;19.41;43.25;99977.25;4962407;28;20035;-62
2021/05/27 11:50:59;;;;;;;1244.32;999.90;;;;;;;19.42;43.00;99989.84;4963252;28;20318;-64
2021/05/27 11:53:25;;;;;;;1228.75;999.90;;;;;;;19.38;42.86;100016.59;4968014;28;20502;-63
2021/05/27 11:55:56;;;;;;;1224.90;999.90;;;;;;;19.33;43.08;100013.69;4967191;28;20047;-64
2021/05/27 11:58:38;;;;;;;1230.38;999.90;;;;;;;19.30;43.02;100025.00;4963522;28;20049;-64
2021/05/27 12:01:17;;;;;;;1231.18;999.90;;;;;;;19.29;42.74;100039.59;4961534;28;20030;-62
2021/05/27 12:04:01;;;;;;;1226.78;999.90;;;;;;;19.27;42.60;100030.81;4967135;28;20042;-63
2021/05/27 12:06:27;;;;;;;1233.63;999.90;;;;;;;19.26;42.65;100031.84;4966125;28;20038;-61
2021/05/27 12:08:53;;;;;;;1229.22;999.90;;;;;;;19.21;42.85;100031.66;4978406;28;20027;-66
2021/05/27 12:11:32;;;;;;;1232.65;999.90;;;;;;;19.24;42.68;100026.63;4981404;28;20050;-65
2021/05/27 12:14:02;;;;;;;1230.93;999.90;;;;;;;19.26;42.62;100027.25;4975684;28;20034;-66
2021/05/27 12:16:36;;;;;;;1233.13;999.90;;;;;;;19.28;42.94;100018.88;4977916;28;20484;-66